Time;durP1;ratioP1;P1;durP2;ratioP2;P2;SDS_P1;SDS_P2;PMS_P1;PMS_P2;Temp;Humidity;BMP_temperature;BMP_pressure;BME280_temperature;BME280_humidity;BME280_pressure;Samples;Min_cycle;Max_cycle;Signal;HPM_P1;HPM_P2
2024/01/27 00:00:11;;;;;;;6.53;2.80;;;;;;;6.83;52.77;102729.16;677304;29;1039;-87
2024/01/27 00:00:32;;;;;;;6.75;3.05;;;;;;;6.76;53.26;102719.09;675882;29;1501;-86
2024/01/27 00:00:53;;;;;;;9.17;2.63;;;;;;;6.87;53.27;102735.47;674726;29;793;-86
2024/01/27 00:01:13;;;;;;;15.15;2.38;;;;;;;6.82;52.65;102722.16;677004;29;1597;-87
2024/01/27 00:01:34;;;;;;;13.50;3.03;;;;;;;6.89;53.23;102741.72;675805;29;1998;-86
2024/01/27 00:01:55;;;;;;;11.90;3.03;;;;;;;6.80;53.09;102718.56;674534;29;1617;-86
2024/01/27 00:02:16;;;;;;;6.13;2.90;;;;;;;6.81;53.02;102733.34;672152;29;1079;-86
2024/01/27 00:02:36;;;;;;;4.93;2.40;;;;;;;6.73;52.96;102720.59;671763;29;1571;-87
2024/01/27 00:02:57;;;;;;;4.45;2.35;;;;;;;6.76;53.20;102721.69;672239;29;801;-87
2024/01/27 00:03:17;;;;;;;4.75;2.63;;;;;;;6.66;53.55;102721.75;677141;29;1159;-87
2024/01/27 00:03:38;;;;;;;3.07;2.20;;;;;;;6.75;53.85;102737.19;677527;29;1449;-86
2024/01/27 00:03:59;;;;;;;2.88;2.10;;;;;;;6.76;53.85;102734.66;677325;29;1390;-87
2024/01/27 00:04:20;;;;;;;2.08;1.60;;;;;;;6.79;53.76;102736.59;672104;29;1375;-86
2024/01/27 00:04:41;;;;;;;7.13;2.10;;;;;;;6.80;53.84;102733.22;679490;29;1534;-87
2024/01/27 00:05:02;;;;;;;16.23;2.45;;;;;;;6.81;53.71;102735.94;682414;28;1240;-86
2024/01/27 00:05:22;;;;;;;17.83;2.85;;;;;;;6.78;53.88;102733.13;679671;29;1496;-86
2024/01/27 00:05:43;;;;;;;11.57;2.47;;;;;;;6.77;53.83;102728.72;677170;29;1282;-86
2024/01/27 00:06:04;;;;;;;5.73;2.53;;;;;;;6.80;53.72;102723.75;677220;29;1309;-86
2024/01/27 00:06:25;;;;;;;6.40;2.80;;;;;;;6.81;53.58;102732.44;677066;29;1717;-87
2024/01/27 00:06:45;;;;;;;6.13;2.78;;;;;;;6.83;53.93;102718.78;677415;29;865;-87
2024/01/27 00:07:06;;;;;;;9.30;2.88;;;;;;;6.91;53.28;102736.63;674592;29;1356;-86
2024/01/27 00:07:28;;;;;;;8.40;2.77;;;;;;;6.83;53.57;102731.75;674364;29;1469;-86
2024/01/27 00:07:48;;;;;;;9.00;2.92;;;;;;;6.88;53.43;102736.41;672101;29;1377;-87
2024/01/27 00:08:09;;;;;;;5.47;2.78;;;;;;;6.79;53.44;102729.72;674758;29;1346;-86
2024/01/27 00:08:29;;;;;;;7.20;2.83;;;;;;;6.85;53.27;102739.66;674294;29;1591;-86
2024/01/27 00:08:50;;;;;;;6.13;2.57;;;;;;;6.83;53.59;102733.47;674248;29;761;-86
2024/01/27 00:09:11;;;;;;;5.45;2.38;;;;;;;6.79;53.34;102732.31;674581;29;1512;-86
2024/01/27 00:09:31;;;;;;;6.90;2.30;;;;;;;6.82;53.00;102735.13;674461;29;1160;-86
2024/01/27 00:09:52;;;;;;;8.25;2.80;;;;;;;6.84;52.81;102743.06;674784;29;769;-86
2024/01/27 00:10:13;;;;;;;7.77;2.87;;;;;;;6.87;53.14;102739.78;682534;29;1269;-86
2024/01/27 00:10:33;;;;;;;4.10;2.50;;;;;;;6.82;53.29;102752.44;678035;29;1205;-87
2024/01/27 00:10:54;;;;;;;3.95;2.50;;;;;;;6.74;53.43;102727.59;677297;29;1438;-86
2024/01/27 00:11:15;;;;;;;3.70;2.30;;;;;;;6.82;53.47;102742.03;677238;29;1276;-87
2024/01/27 00:11:35;;;;;;;4.00;2.70;;;;;;;6.74;53.80;102754.44;674382;29;1291;-86
2024/01/27 00:11:56;;;;;;;4.10;2.20;;;;;;;6.69;53.29;102743.66;674780;29;858;-86
2024/01/27 00:12:17;;;;;;;3.90;2.30;;;;;;;6.73;53.90;102742.25;674665;29;1357;-87
2024/01/27 00:12:37;;;;;;;6.70;2.70;;;;;;;6.82;53.29;102748.13;674375;29;1319;-87
2024/01/27 00:12:58;;;;;;;14.52;2.92;;;;;;;6.76;53.83;102744.16;674116;29;921;-87
2024/01/27 00:13:18;;;;;;;14.50;2.85;;;;;;;6.78;53.39;102746.09;674620;29;1351;-87
2024/01/27 00:13:39;;;;;;;11.53;2.10;;;;;;;6.71;53.57;102733.44;674485;29;1295;-87
2024/01/27 00:14:27;;;;;;;3.22;1.63;;;;;;;6.79;53.82;102753.09;677327;29;1176;-86
2024/01/27 00:14:47;;;;;;;14.57;2.13;;;;;;;6.71;53.67;102744.72;677280;29;829;-86
2024/01/27 00:15:08;;;;;;;11.63;2.55;;;;;;;6.75;53.44;102740.66;674647;29;1201;-87
2024/01/27 00:15:29;;;;;;;4.90;2.80;;;;;;;6.71;53.15;102743.81;672753;29;1227;-86
2024/01/27 00:15:50;;;;;;;3.83;2.72;;;;;;;6.69;53.65;102732.41;674603;29;1174;-87
2024/01/27 00:16:57;;;;;;;7.60;2.50;;;;;;;6.76;53.42;102751.94;674705;29;1035;-86
2024/01/27 00:17:48;;;;;;;8.18;2.50;;;;;;;6.77;53.30;102758.94;678404;28;947;-86
2024/01/27 00:18:08;;;;;;;7.70;2.30;;;;;;;6.61;53.51;102743.84;684415;28;1167;-87
2024/01/27 00:18:29;;;;;;;9.23;2.70;;;;;;;6.61;53.49;102749.03;681426;28;1191;-87
2024/01/27 00:18:49;;;;;;;5.03;2.40;;;;;;;6.63;53.62;102744.91;677195;29;1406;-86
2024/01/27 00:19:10;;;;;;;5.20;2.38;;;;;;;6.60;53.27;102739.47;677099;29;1210;-85
2024/01/27 00:19:30;;;;;;;3.03;2.07;;;;;;;6.57;53.91;102742.75;679152;29;1031;-86
2024/01/27 00:19:51;;;;;;;2.20;1.90;;;;;;;6.59;53.82;102743.75;682545;29;1225;-86
2024/01/27 00:20:12;;;;;;;2.78;2.38;;;;;;;6.65;53.49;102745.91;682642;29;962;-86
2024/01/27 00:20:33;;;;;;;5.90;2.60;;;;;;;6.62;53.71;102748.28;679748;29;1083;-86
2024/01/27 00:23:26;;;;;;;2.40;2.08;;;;;;;6.81;53.75;102761.00;681556;29;693;-86
2024/01/27 00:24:06;;;;;;;3.75;2.30;;;;;;;6.82;53.38;102768.00;682581;28;1561;-86
2024/01/27 00:24:26;;;;;;;4.50;2.50;;;;;;;6.75;53.28;102758.81;682899;28;1092;-86
2024/01/27 00:24:47;;;;;;;4.33;2.67;;;;;;;6.75;53.33;102751.03;678396;29;1383;-87
2024/01/27 00:25:08;;;;;;;3.92;2.50;;;;;;;6.71;53.47;102754.19;677441;29;947;-87
2024/01/27 00:25:29;;;;;;;4.55;2.60;;;;;;;6.73;53.41;102759.53;679617;29;1176;-86
2024/01/27 00:25:49;;;;;;;3.90;2.08;;;;;;;6.74;53.44;102775.19;674615;29;880;-87
2024/01/27 00:26:11;;;;;;;5.03;2.40;;;;;;;6.66;53.70;102769.41;674670;29;996;-87
2024/01/27 00:26:32;;;;;;;3.55;2.00;;;;;;;6.65;53.64;102758.88;670584;29;1790;-86
2024/01/27 00:26:52;;;;;;;2.25;1.85;;;;;;;6.61;54.08;102762.00;674432;29;892;-86
2024/01/27 00:27:13;;;;;;;1.60;1.50;;;;;;;6.64;53.48;102757.09;675567;29;1010;-87
2024/01/27 00:27:34;;;;;;;1.40;1.30;;;;;;;6.64;53.61;102752.78;678542;29;1152;-87
2024/01/27 00:27:54;;;;;;;3.10;1.57;;;;;;;6.74;53.51;102769.09;677417;29;1088;-87
2024/01/27 00:28:15;;;;;;;5.40;2.10;;;;;;;6.68;53.66;102769.47;677196;29;1204;-86
2024/01/27 00:28:36;;;;;;;6.22;2.40;;;;;;;6.68;53.73;102765.22;678714;29;1504;-86
2024/01/27 00:28:56;;;;;;;4.30;2.13;;;;;;;6.63;53.48;102756.16;671487;29;1338;-87
2024/01/27 00:29:17;;;;;;;2.65;1.80;;;;;;;6.63;53.71;102757.88;674557;29;1258;-87
2024/01/27 00:29:37;;;;;;;3.33;1.80;;;;;;;6.64;53.55;102767.47;673544;29;1289;-87
2024/01/27 00:29:58;;;;;;;5.73;2.70;;;;;;;6.61;53.90;102752.56;679940;29;1266;-87
2024/01/27 00:30:19;;;;;;;9.48;2.97;;;;;;;6.61;53.94;102756.81;677108;29;1233;-87
2024/01/27 00:30:39;;;;;;;11.07;3.30;;;;;;;6.63;53.32;102750.09;674434;29;999;-86
2024/01/27 00:31:00;;;;;;;8.20;2.50;;;;;;;6.69;53.23;102759.22;674649;29;1157;-86
2024/01/27 00:31:21;;;;;;;6.95;2.80;;;;;;;6.62;53.41;102758.66;676675;29;1743;-87
2024/01/27 00:31:41;;;;;;;8.05;2.85;;;;;;;6.69;53.12;102768.72;674246;29;1173;-86
2024/01/27 00:32:02;;;;;;;8.18;3.28;;;;;;;6.63;53.13;102760.47;674562;29;1110;-86
2024/01/27 00:32:23;;;;;;;6.40;2.83;;;;;;;6.66;53.17;102763.28;679722;29;1181;-86
2024/01/27 00:32:44;;;;;;;12.40;2.40;;;;;;;6.62;53.38;102763.84;674526;29;1134;-87
2024/01/27 00:33:04;;;;;;;12.25;2.03;;;;;;;6.67;53.70;102767.69;676125;29;1668;-86
2024/01/27 00:33:25;;;;;;;11.45;2.10;;;;;;;6.57;53.68;102760.91;677008;29;1385;-87
2024/01/27 00:33:45;;;;;;;3.93;2.60;;;;;;;6.57;53.42;102760.91;677330;29;1170;-87
2024/01/27 00:34:09;;;;;;;8.63;2.93;;;;;;;6.44;53.80;102748.66;674549;29;1093;-86
2024/01/27 00:34:29;;;;;;;7.22;2.33;;;;;;;6.46;53.62;102762.69;671811;29;1404;-87
2024/01/27 00:34:50;;;;;;;8.00;2.20;;;;;;;6.52;53.68;102767.44;677092;29;1244;-86
2024/01/27 00:35:14;;;;;;;10.07;2.00;;;;;;;6.48;53.81;102750.72;677191;29;1000;-87
2024/01/27 00:35:35;;;;;;;10.32;2.30;;;;;;;6.49;53.87;102751.59;678449;29;1308;-86
2024/01/27 00:35:55;;;;;;;10.65;2.50;;;;;;;6.56;53.60;102770.38;679453;29;800;-87
2024/01/27 00:36:16;;;;;;;5.30;2.47;;;;;;;6.49;53.67;102760.31;675805;29;1487;-86
2024/01/27 00:36:37;;;;;;;7.95;2.60;;;;;;;6.52;53.53;102768.31;676715;29;1205;-86
2024/01/27 00:36:57;;;;;;;7.07;2.67;;;;;;;6.57;53.60;102764.38;682507;29;1194;-87
2024/01/27 00:37:18;;;;;;;9.93;2.83;;;;;;;6.61;53.30;102762.94;679444;29;1213;-87
2024/01/27 00:37:38;;;;;;;10.82;2.63;;;;;;;6.48;53.50;102758.50;674374;29;1132;-86
2024/01/27 00:37:59;;;;;;;13.00;2.40;;;;;;;6.50;53.84;102761.22;672098;29;1186;-87
2024/01/27 00:38:20;;;;;;;9.00;1.92;;;;;;;6.51;53.37;102776.00;674591;29;1195;-87
2024/01/27 00:41:03;;;;;;;10.55;2.60;;;;;;;6.46;53.42;102778.25;685044;28;895;-86
2024/01/27 00:41:23;;;;;;;8.27;2.22;;;;;;;6.35;53.54;102764.44;682360;28;1216;-86
2024/01/27 00:41:44;;;;;;;4.88;1.88;;;;;;;6.35;53.73;102763.50;679642;29;1906;-86
2024/01/27 00:42:05;;;;;;;11.48;2.58;;;;;;;6.32;53.81;102765.88;681008;29;1224;-86
2024/01/27 00:42:25;;;;;;;9.93;2.90;;;;;;;6.32;53.74;102768.47;679344;29;1472;-87
2024/01/27 00:42:46;;;;;;;10.00;2.97;;;;;;;6.33;53.71;102770.28;672553;29;1491;-86
2024/01/27 00:43:06;;;;;;;4.93;2.60;;;;;;;6.28;53.65;102782.91;677106;29;1204;-87
2024/01/27 00:43:27;;;;;;;5.90;2.50;;;;;;;6.28;53.80;102768.22;679674;29;1212;-86
2024/01/27 00:43:48;;;;;;;6.53;2.65;;;;;;;6.28;53.71;102773.41;677777;29;1209;-87
2024/01/27 00:50:55;;;;;;;3.72;2.00;;;;;;;6.36;53.51;102789.59;682695;29;698;-86
2024/01/27 00:51:27;;;;;;;2.30;1.77;;;;;;;6.39;54.00;102786.31;682791;28;1221;-86
2024/01/27 00:51:48;;;;;;;4.00;2.20;;;;;;;6.38;53.79;102779.34;685177;28;1263;-86
2024/01/27 00:52:09;;;;;;;4.32;2.20;;;;;;;6.30;54.03;102766.69;677154;29;1188;-86
2024/01/27 00:52:29;;;;;;;4.67;2.43;;;;;;;6.37;53.97;102787.88;677076;29;1236;-86
2024/01/27 00:52:50;;;;;;;7.80;2.40;;;;;;;6.35;53.94;102774.81;677873;29;1406;-86
2024/01/27 00:54:03;;;;;;;7.72;2.58;;;;;;;6.39;54.25;102792.41;677277;29;972;-87
2024/01/27 00:54:25;;;;;;;2.13;1.70;;;;;;;6.38;54.08;102788.00;683678;28;1321;-86
2024/01/27 00:54:45;;;;;;;3.25;1.90;;;;;;;6.45;54.30;102792.00;680718;29;1703;-86
2024/01/27 00:55:06;;;;;;;3.55;1.90;;;;;;;6.42;53.87;102776.19;677114;29;1083;-86
2024/01/27 00:55:27;;;;;;;3.97;2.33;;;;;;;6.45;53.70;102789.41;677033;29;1208;-86
2024/01/27 00:55:48;;;;;;;2.70;2.10;;;;;;;6.40;53.71;102780.34;674097;29;1673;-86
2024/01/27 00:56:08;;;;;;;3.53;2.33;;;;;;;6.39;54.23;102782.03;674397;29;1692;-87
2024/01/27 00:56:29;;;;;;;6.60;2.67;;;;;;;6.40;53.96;102782.94;677003;29;1161;-87
2024/01/27 00:56:49;;;;;;;7.13;2.75;;;;;;;6.28;54.27;102778.59;674798;29;854;-87
2024/01/27 00:57:10;;;;;;;5.43;2.33;;;;;;;6.23;54.55;102772.16;677295;29;1102;-86
2024/01/27 00:57:30;;;;;;;6.00;2.22;;;;;;;6.28;54.08;102775.13;677923;29;1062;-87
2024/01/27 00:57:51;;;;;;;6.32;2.50;;;;;;;6.30;54.23;102777.03;677266;29;840;-86
2024/01/27 00:58:12;;;;;;;14.07;2.70;;;;;;;6.30;54.42;102778.72;674011;29;1303;-86
2024/01/27 00:58:33;;;;;;;10.60;2.20;;;;;;;6.30;54.32;102789.09;675760;29;1324;-87
2024/01/27 00:58:54;;;;;;;10.85;2.10;;;;;;;6.27;54.04;102774.19;679272;29;842;-86
2024/01/27 00:59:15;;;;;;;4.10;1.90;;;;;;;6.29;54.42;102776.91;679712;29;1182;-86
2024/01/27 00:59:35;;;;;;;5.72;1.90;;;;;;;6.32;53.90;102773.66;679453;29;1764;-86
2024/01/27 00:59:56;;;;;;;3.47;1.55;;;;;;;6.23;54.29;102782.53;681280;29;780;-87
2024/01/27 01:00:17;;;;;;;5.30;2.08;;;;;;;6.27;54.27;102787.16;679823;29;897;-87
2024/01/27 01:00:37;;;;;;;4.50;1.95;;;;;;;6.23;54.34;102781.63;677012;29;1090;-87
2024/01/27 01:00:58;;;;;;;6.80;2.40;;;;;;;6.21;54.06;102776.34;677200;29;1298;-86
2024/01/27 01:01:19;;;;;;;9.63;2.33;;;;;;;6.28;54.31;102786.38;679856;29;939;-86
2024/01/27 01:01:39;;;;;;;7.97;2.33;;;;;;;6.23;54.11;102774.75;681662;28;1911;-87
2024/01/27 01:02:00;;;;;;;8.57;2.53;;;;;;;6.14;54.60;102780.13;679874;29;757;-87
2024/01/27 01:02:20;;;;;;;8.82;2.60;;;;;;;6.16;54.58;102775.06;676921;29;1208;-88
2024/01/27 01:02:41;;;;;;;9.90;2.75;;;;;;;6.22;54.43;102788.50;677006;29;1231;-86
2024/01/27 01:03:02;;;;;;;10.80;2.35;;;;;;;6.23;54.55;102781.63;677034;29;1076;-86
2024/01/27 01:03:22;;;;;;;10.87;2.40;;;;;;;6.20;54.68;102778.78;674681;29;1379;-86
2024/01/27 01:03:43;;;;;;;11.00;2.40;;;;;;;6.26;54.41;102793.13;679712;29;1123;-86
2024/01/27 01:04:04;;;;;;;8.65;2.47;;;;;;;6.24;54.47;102796.38;674556;29;1205;-86
2024/01/27 01:04:24;;;;;;;8.07;2.47;;;;;;;6.27;54.78;102796.66;677044;29;1160;-86
2024/01/27 01:04:45;;;;;;;8.90;2.60;;;;;;;6.27;54.80;102792.34;673504;29;1064;-87
2024/01/27 01:05:06;;;;;;;8.15;2.72;;;;;;;6.37;54.43;102800.84;671959;29;981;-86
2024/01/27 01:05:26;;;;;;;7.75;2.63;;;;;;;6.23;54.66;102784.22;674346;29;1411;-86
2024/01/27 01:05:47;;;;;;;6.90;2.40;;;;;;;6.35;54.67;102795.56;677219;29;1176;-87
2024/01/27 01:06:10;;;;;;;5.15;2.17;;;;;;;6.28;54.23;102780.31;682156;29;1230;-86
2024/01/27 01:06:30;;;;;;;4.50;2.27;;;;;;;6.31;54.40;102783.13;679481;29;1263;-86
2024/01/27 01:06:51;;;;;;;7.70;2.75;;;;;;;6.32;54.37;102784.94;678052;29;1160;-86
2024/01/27 01:07:12;;;;;;;8.60;2.77;;;;;;;6.22;54.73;102779.81;674512;29;1305;-86
2024/01/27 01:07:33;;;;;;;9.00;2.72;;;;;;;6.24;54.95;102792.13;677148;29;1051;-86
2024/01/27 01:07:53;;;;;;;5.80;2.58;;;;;;;6.30;54.71;102790.00;677295;29;833;-86
2024/01/27 01:08:14;;;;;;;4.05;2.53;;;;;;;6.29;54.62;102785.63;679765;29;1386;-86
2024/01/27 01:08:34;;;;;;;3.78;2.40;;;;;;;6.37;54.52;102786.19;680993;29;1477;-87
2024/01/27 01:08:55;;;;;;;4.73;2.43;;;;;;;6.32;54.78;102776.25;676621;29;1339;-87
2024/01/27 01:09:16;;;;;;;4.72;2.40;;;;;;;6.36;54.61;102783.47;677122;29;1292;-86
2024/01/27 01:09:36;;;;;;;5.25;2.38;;;;;;;6.34;54.77;102778.19;676966;29;1138;-86
2024/01/27 01:09:57;;;;;;;3.87;2.07;;;;;;;6.33;54.23;102773.78;674687;29;1072;-87
2024/01/27 01:10:18;;;;;;;4.13;2.08;;;;;;;6.31;54.63;102772.75;677192;29;1027;-87
2024/01/27 01:10:38;;;;;;;3.20;1.90;;;;;;;6.34;54.45;102774.69;677161;29;1195;-87
2024/01/27 01:10:59;;;;;;;2.05;1.70;;;;;;;6.36;54.25;102780.88;677285;29;766;-86
2024/01/27 01:11:20;;;;;;;3.30;1.90;;;;;;;6.35;54.13;102776.47;674629;29;1359;-87
2024/01/27 01:11:40;;;;;;;3.83;2.33;;;;;;;6.38;54.32;102785.41;676476;29;1143;-86
2024/01/27 01:12:02;;;;;;;5.75;2.60;;;;;;;6.37;54.33;102778.41;677223;29;1056;-86
2024/01/27 01:12:22;;;;;;;3.78;2.03;;;;;;;6.35;54.03;102772.22;674597;29;1388;-86
2024/01/27 01:12:43;;;;;;;5.35;2.70;;;;;;;6.43;53.96;102793.53;679570;29;1552;-86
2024/01/27 01:13:04;;;;;;;7.22;3.17;;;;;;;6.35;54.19;102779.06;677103;29;1261;-87
2024/01/27 01:13:24;;;;;;;7.07;3.22;;;;;;;6.28;54.28;102781.19;676983;29;1181;-86
2024/01/27 01:13:45;;;;;;;6.60;2.90;;;;;;;6.30;54.26;102782.25;672600;29;1376;-87
2024/01/27 01:14:06;;;;;;;4.07;2.42;;;;;;;6.30;54.09;102771.84;679154;29;1376;-87
2024/01/27 01:14:26;;;;;;;5.25;2.80;;;;;;;6.30;54.63;102777.03;679046;29;1110;-86
2024/01/27 01:14:47;;;;;;;4.33;2.43;;;;;;;6.28;54.62;102783.78;679776;29;1422;-86
2024/01/27 01:15:08;;;;;;;3.30;2.40;;;;;;;6.25;55.30;102778.38;679743;29;1101;-87
2024/01/27 01:15:29;;;;;;;2.90;2.25;;;;;;;6.38;54.76;102788.00;682354;28;1129;-86
2024/01/27 01:15:49;;;;;;;4.55;2.67;;;;;;;6.39;54.68;102787.22;679703;29;1323;-86
2024/01/27 01:16:10;;;;;;;4.40;2.42;;;;;;;6.32;54.61;102778.84;677160;29;1269;-87
2024/01/27 01:16:31;;;;;;;3.95;2.15;;;;;;;6.34;54.94;102782.47;676972;29;1229;-86
2024/01/27 01:16:51;;;;;;;3.60;1.90;;;;;;;6.35;55.04;102779.06;679936;29;809;-86
2024/01/27 01:17:13;;;;;;;3.95;2.08;;;;;;;6.36;54.55;102775.69;677020;29;1318;-86
2024/01/27 01:17:33;;;;;;;4.88;2.35;;;;;;;6.37;54.56;102782.69;674510;29;1087;-86
2024/01/27 01:17:54;;;;;;;5.60;2.53;;;;;;;6.38;54.79;102784.53;676720;29;1237;-87
2024/01/27 01:18:15;;;;;;;6.57;2.72;;;;;;;6.37;54.43;102781.00;674692;29;985;-86
2024/01/27 01:18:35;;;;;;;7.50;2.90;;;;;;;6.35;54.80;102790.38;675788;29;1305;-87
2024/01/27 01:18:56;;;;;;;4.07;2.53;;;;;;;6.47;54.45;102800.78;676678;29;1168;-86
2024/01/27 01:19:16;;;;;;;3.77;2.23;;;;;;;6.46;54.68;102803.25;677031;29;1387;-87
2024/01/27 01:19:37;;;;;;;8.32;2.65;;;;;;;6.34;54.53;102782.47;675980;29;1222;-87
2024/01/27 01:19:58;;;;;;;10.02;2.83;;;;;;;6.34;54.53;102787.66;679861;29;1366;-86
2024/01/27 01:20:19;;;;;;;9.35;2.70;;;;;;;6.40;54.43;102795.91;679851;29;990;-87
2024/01/27 01:20:39;;;;;;;4.07;2.50;;;;;;;6.37;54.72;102803.44;679614;29;1251;-86
2024/01/27 01:21:00;;;;;;;3.35;2.40;;;;;;;6.36;54.65;102793.84;674050;29;1392;-86
2024/01/27 01:21:21;;;;;;;8.15;2.25;;;;;;;6.36;54.71;102806.81;674464;29;1196;-86
2024/01/27 01:21:42;;;;;;;12.30;1.80;;;;;;;6.40;54.67;102807.19;676924;29;1966;-86
2024/01/27 01:22:03;;;;;;;11.20;1.58;;;;;;;6.36;54.72;102802.56;674549;29;1078;-86
2024/01/27 01:22:23;;;;;;;3.10;1.50;;;;;;;6.36;54.21;102809.41;671927;29;1321;-86
2024/01/27 01:22:44;;;;;;;2.57;1.30;;;;;;;6.29;54.24;102801.19;674433;29;1099;-87
2024/01/27 01:23:05;;;;;;;6.63;1.52;;;;;;;6.27;54.36;102794.06;677151;29;1196;-87
2024/01/27 01:23:25;;;;;;;7.45;2.30;;;;;;;6.25;54.60;102791.34;674340;29;1473;-85
2024/01/27 01:23:46;;;;;;;8.07;2.40;;;;;;;6.29;54.21;102806.38;674521;29;1124;-87
2024/01/27 01:24:07;;;;;;;4.20;2.30;;;;;;;6.27;54.63;102813.09;674645;29;976;-86
2024/01/27 01:24:29;;;;;;;4.82;2.25;;;;;;;6.19;54.31;102788.25;674843;29;1157;-86
2024/01/27 01:24:50;;;;;;;9.27;2.80;;;;;;;6.21;54.63;102811.72;674448;29;1400;-85
2024/01/27 01:25:10;;;;;;;8.77;2.77;;;;;;;6.21;54.59;102802.25;672063;29;1004;-86
2024/01/27 01:25:31;;;;;;;7.88;2.40;;;;;;;6.19;54.49;102788.25;672667;29;997;-88
2024/01/27 01:25:51;;;;;;;4.38;2.15;;;;;;;6.34;54.41;102792.84;674444;29;949;-86
2024/01/27 01:26:12;;;;;;;3.90;2.23;;;;;;;6.36;54.33;102809.41;674366;29;1131;-86
2024/01/27 01:26:33;;;;;;;7.03;2.40;;;;;;;6.36;54.13;102801.63;674729;29;1114;-86
2024/01/27 01:26:53;;;;;;;7.97;2.67;;;;;;;6.41;54.11;102808.09;679734;29;1188;-86
2024/01/27 01:27:16;;;;;;;11.87;2.30;;;;;;;6.33;54.17;102799.72;677267;29;1185;-87
2024/01/27 01:27:36;;;;;;;8.05;1.95;;;;;;;6.30;54.18;102802.97;675792;29;1131;-87
2024/01/27 01:27:57;;;;;;;15.48;2.47;;;;;;;6.23;54.17;102804.97;677406;29;698;-86
2024/01/27 01:28:18;;;;;;;18.40;3.37;;;;;;;6.24;54.36;102799.91;676994;29;1180;-87
2024/01/27 01:28:38;;;;;;;21.27;3.70;;;;;;;6.32;54.25;102804.78;675198;29;1295;-87
2024/01/27 01:29:14;;;;;;;16.15;3.08;;;;;;;6.25;54.36;102787.81;673998;29;1227;-86
2024/01/27 01:29:47;;;;;;;6.57;2.90;;;;;;;6.27;54.19;102804.44;677155;29;927;-87
2024/01/27 01:30:09;;;;;;;7.68;3.40;;;;;;;6.28;54.51;102804.53;679818;29;1125;-87
2024/01/27 01:30:29;;;;;;;10.77;3.17;;;;;;;6.27;54.10;102797.53;676920;29;1190;-87
2024/01/27 01:30:53;;;;;;;7.93;2.83;;;;;;;6.27;54.25;102810.50;677231;29;770;-86
2024/01/27 01:31:13;;;;;;;17.45;2.85;;;;;;;6.21;54.27;102804.84;674474;29;1296;-86
2024/01/27 01:31:34;;;;;;;17.35;2.92;;;;;;;6.14;54.58;102807.75;676412;29;1613;-87
2024/01/27 01:31:55;;;;;;;12.47;2.53;;;;;;;6.15;54.90;102805.25;677265;29;812;-87
2024/01/27 01:32:15;;;;;;;5.65;2.70;;;;;;;6.23;54.57;102804.97;677332;29;1440;-87
2024/01/27 01:32:36;;;;;;;12.65;2.45;;;;;;;6.20;54.92;102815.97;671770;29;1289;-87
2024/01/27 01:32:57;;;;;;;11.97;2.37;;;;;;;6.11;55.05;102794.53;677165;29;1263;-86
2024/01/27 01:33:18;;;;;;;7.00;2.17;;;;;;;6.14;54.51;102794.78;677330;29;1406;-86
2024/01/27 01:33:38;;;;;;;2.80;2.30;;;;;;;6.22;54.51;102798.88;677860;29;1395;-87
2024/01/27 01:33:59;;;;;;;3.95;2.42;;;;;;;6.24;54.47;102802.50;675349;29;842;-86
2024/01/27 01:34:20;;;;;;;7.10;2.40;;;;;;;6.27;54.13;102809.63;674541;29;1207;-87
2024/01/27 01:34:40;;;;;;;9.23;2.33;;;;;;;6.26;54.34;102806.09;676102;29;1283;-86
2024/01/27 01:35:01;;;;;;;8.27;2.80;;;;;;;6.21;53.98;102802.25;674603;29;1151;-86
2024/01/27 01:35:21;;;;;;;6.78;2.60;;;;;;;6.21;54.71;102802.25;671998;29;1523;-86
2024/01/27 01:35:42;;;;;;;5.93;2.67;;;;;;;6.21;54.52;102811.72;673963;29;996;-86
2024/01/27 01:36:03;;;;;;;9.23;2.50;;;;;;;6.14;54.53;102805.16;676159;29;1064;-87
2024/01/27 01:36:24;;;;;;;12.70;3.43;;;;;;;6.24;54.70;102812.88;677162;29;1043;-86
2024/01/27 01:36:45;;;;;;;15.57;2.90;;;;;;;6.24;54.72;102812.88;674235;29;1363;-87
2024/01/27 01:37:06;;;;;;;11.30;2.78;;;;;;;6.19;54.69;102798.63;674572;29;1208;-87
2024/01/27 01:37:26;;;;;;;5.60;2.40;;;;;;;6.22;54.24;102803.16;674301;29;1291;-86
2024/01/27 01:37:48;;;;;;;4.53;2.63;;;;;;;6.22;54.63;102809.25;674540;29;1202;-86
2024/01/27 01:38:09;;;;;;;3.33;2.78;;;;;;;6.10;54.03;102797.91;674496;29;1260;-86
2024/01/27 01:38:29;;;;;;;4.40;2.70;;;;;;;6.13;54.85;102799.06;677486;29;1401;-86
2024/01/27 01:38:50;;;;;;;6.38;2.90;;;;;;;6.14;54.82;102810.34;674533;29;1433;-86
2024/01/27 01:39:13;;;;;;;10.02;3.05;;;;;;;6.15;54.69;102802.66;674304;29;1213;-87
2024/01/27 01:39:33;;;;;;;9.15;2.88;;;;;;;6.14;54.56;102798.25;671744;29;1246;-86
2024/01/27 01:39:54;;;;;;;8.90;3.13;;;;;;;6.16;54.54;102798.41;674581;29;1273;-86
2024/01/27 01:40:15;;;;;;;5.80;3.10;;;;;;;6.13;54.77;102808.50;674652;29;963;-86
2024/01/27 01:40:36;;;;;;;4.95;2.97;;;;;;;6.25;54.19;102819.84;682051;28;1046;-86
2024/01/27 01:40:56;;;;;;;3.78;2.65;;;;;;;6.17;54.15;102800.19;677197;29;1181;-86
2024/01/27 01:41:17;;;;;;;7.63;2.55;;;;;;;6.07;54.61;102797.66;676995;29;1589;-88
2024/01/27 01:41:37;;;;;;;11.30;3.10;;;;;;;6.05;54.76;102799.22;674285;29;1903;-87
2024/01/27 01:41:58;;;;;;;12.05;3.35;;;;;;;6.07;54.28;102805.44;677738;29;835;-87
2024/01/27 01:42:23;;;;;;;6.75;3.10;;;;;;;6.10;54.44;102808.28;679789;29;1069;-87
2024/01/27 01:42:50;;;;;;;2.70;2.10;;;;;;;6.15;54.70;102812.16;676632;29;1281;-87
2024/01/27 01:43:12;;;;;;;3.20;2.40;;;;;;;6.09;54.32;102793.50;677160;29;1190;-86
2024/01/27 01:43:32;;;;;;;3.10;2.30;;;;;;;6.14;54.48;102805.16;676866;29;1296;-86
2024/01/27 01:43:53;;;;;;;2.57;2.20;;;;;;;6.13;54.30;102806.81;677591;29;717;-86
2024/01/27 01:44:13;;;;;;;5.93;1.83;;;;;;;6.08;54.48;102809.84;677619;29;1203;-87
2024/01/27 01:44:34;;;;;;;9.50;2.53;;;;;;;6.08;54.58;102815.03;672294;29;1056;-86
2024/01/27 01:44:55;;;;;;;9.13;2.67;;;;;;;5.94;54.76;102806.16;673994;29;1288;-86
2024/01/27 01:45:17;;;;;;;6.90;2.60;;;;;;;5.99;54.52;102810.94;674931;29;1151;-87
2024/01/27 01:45:37;;;;;;;5.20;2.53;;;;;;;5.92;54.63;102798.25;674806;29;1279;-86
2024/01/27 01:45:58;;;;;;;4.43;2.40;;;;;;;5.96;54.53;102805.47;672555;29;774;-87
2024/01/27 01:46:19;;;;;;;5.03;2.63;;;;;;;5.96;55.06;102805.47;672531;29;1028;-87
2024/01/27 01:46:39;;;;;;;5.63;2.60;;;;;;;6.11;54.70;102820.44;679293;29;1136;-87
2024/01/27 01:47:00;;;;;;;5.80;2.60;;;;;;;6.03;54.86;102815.56;682923;29;832;-85
2024/01/27 01:47:24;;;;;;;3.63;2.05;;;;;;;5.97;54.83;102802.13;680198;29;1059;-86
2024/01/27 01:47:45;;;;;;;3.13;2.03;;;;;;;6.04;54.90;102803.50;677626;29;1264;-86
2024/01/27 01:48:06;;;;;;;3.20;2.30;;;;;;;6.04;54.88;102806.09;674988;29;1075;-86
2024/01/27 01:48:27;;;;;;;3.40;2.20;;;;;;;6.06;54.79;102811.41;677810;29;1082;-86
2024/01/27 01:48:48;;;;;;;3.00;2.07;;;;;;;6.14;54.48;102820.72;677740;29;741;-87
2024/01/27 01:49:08;;;;;;;3.90;2.30;;;;;;;6.12;54.64;102817.06;676962;29;1106;-86
2024/01/27 01:49:29;;;;;;;5.30;2.30;;;;;;;6.05;54.64;102812.16;677410;29;1309;-87
2024/01/27 01:49:50;;;;;;;6.20;2.33;;;;;;;6.09;54.60;102809.06;682970;29;800;-86
2024/01/27 01:50:11;;;;;;;7.18;2.20;;;;;;;6.14;54.67;102820.72;681512;29;1123;-86
2024/01/27 01:50:32;;;;;;;7.15;2.45;;;;;;;6.11;54.24;102815.25;674871;29;1214;-87
2024/01/27 01:50:53;;;;;;;8.45;2.30;;;;;;;6.08;54.52;102805.53;677620;29;1258;-87
2024/01/27 01:51:14;;;;;;;6.65;2.20;;;;;;;6.01;54.88;102804.16;680267;29;1096;-87
2024/01/27 01:51:35;;;;;;;4.35;1.95;;;;;;;6.06;54.66;102809.72;680088;29;1181;-86
2024/01/27 01:51:55;;;;;;;3.95;2.22;;;;;;;6.06;54.83;102804.53;677659;29;1193;-87
2024/01/27 01:52:19;;;;;;;4.00;2.27;;;;;;;6.19;54.49;102823.66;677470;29;1537;-87
2024/01/27 01:52:40;;;;;;;7.30;2.50;;;;;;;6.12;54.41;102806.69;679943;29;1194;-86
2024/01/27 01:53:01;;;;;;;9.40;2.70;;;;;;;6.15;54.62;102818.22;677440;29;1388;-86
2024/01/27 01:53:23;;;;;;;9.73;2.90;;;;;;;6.11;54.61;102810.06;677554;29;1341;-87
2024/01/27 01:53:47;;;;;;;10.00;2.88;;;;;;;6.03;54.77;102804.31;677485;29;1268;-86
2024/01/27 01:54:08;;;;;;;5.75;2.30;;;;;;;6.01;55.10;102806.75;677644;29;933;-87
2024/01/27 01:54:28;;;;;;;5.93;2.60;;;;;;;6.05;55.44;102809.59;672195;29;1322;-86
2024/01/27 01:54:50;;;;;;;5.20;2.28;;;;;;;6.09;55.08;102809.06;675058;29;761;-86
2024/01/27 01:55:10;;;;;;;9.55;2.70;;;;;;;6.13;55.22;102818.88;674950;29;1371;-86
2024/01/27 01:55:34;;;;;;;13.38;2.72;;;;;;;6.07;54.95;102805.44;673446;29;1493;-87
2024/01/27 01:55:55;;;;;;;11.27;2.75;;;;;;;6.11;54.96;102810.06;675083;29;847;-86